Time;durP1;ratioP1;P1;durP2;ratioP2;P2;SDS_P1;SDS_P2;PMS_P1;PMS_P2;Temp;Humidity;BMP_temperature;BMP_pressure;BME280_temperature;BME280_humidity;BME280_pressure;Samples;Min_cycle;Max_cycle;Signal;HPM_P1;HPM_P2
2021/03/10 00:02:01;;;;;;;;;;;;;;;-8.76;100.00;100126.19;1857722;77;20131;-73
2021/03/10 00:04:31;;;;;;;;;;;;;;;-8.75;100.00;100126.53;1857832;77;20114;-73
2021/03/10 00:06:59;;;;;;;;;;;;;;;-8.85;100.00;100130.30;1857809;77;21699;-73
2021/03/10 00:09:28;;;;;;;;;;;;;;;-8.93;100.00;100133.95;1857489;77;20131;-73
2021/03/10 00:11:55;;;;;;;;;;;;;;;-8.91;100.00;100123.78;1857743;77;20129;-73
2021/03/10 00:14:24;;;;;;;;;;;;;;;-8.87;100.00;100134.33;1857759;77;20142;-73
2021/03/10 00:16:51;;;;;;;;;;;;;;;-8.93;100.00;100127.45;1857988;77;20206;-73
2021/03/10 00:19:19;;;;;;;;;;;;;;;-9.04;100.00;100126.11;1824979;77;21258;-73
2021/03/10 00:21:47;;;;;;;;;;;;;;;-9.12;100.00;100119.70;1857911;77;20193;-73
2021/03/10 00:24:15;;;;;;;;;;;;;;;-9.25;100.00;100126.76;1857878;77;20230;-73
2021/03/10 00:26:44;;;;;;;;;;;;;;;-9.30;100.00;100130.99;1857811;77;20126;-73
2021/03/10 00:29:11;;;;;;;;;;;;;;;-9.23;100.00;100129.23;1857732;77;20208;-73
2021/03/10 00:31:40;;;;;;;;;;;;;;;-9.17;100.00;100123.59;1825292;77;22463;-73
2021/03/10 00:34:08;;;;;;;;;;;;;;;-9.19;100.00;100128.89;1857706;77;20142;-73
2021/03/10 00:36:37;;;;;;;;;;;;;;;-9.25;100.00;100126.76;1857727;77;20197;-73
2021/03/10 00:39:05;;;;;;;;;;;;;;;-9.30;100.00;100128.39;1857780;77;20106;-73
2021/03/10 00:41:33;;;;;;;;;;;;;;;-9.31;100.00;100122.84;1857794;77;20106;-73
2021/03/10 00:44:01;;;;;;;;;;;;;;;-9.35;100.00;100124.00;1857718;77;21707;-73
2021/03/10 00:46:28;;;;;;;;;;;;;;;-9.41;100.00;100126.21;1857842;77;20242;-73
2021/03/10 00:48:56;;;;;;;;;;;;;;;-9.33;100.00;100126.50;1857821;77;20178;-73
2021/03/10 00:51:24;;;;;;;;;;;;;;;-9.27;100.00;100124.73;1864079;77;20114;-73
2021/03/10 00:53:52;;;;;;;;;;;;;;;-9.32;100.00;100122.47;1864151;77;20106;-73
2021/03/10 00:56:19;;;;;;;;;;;;;;;-9.41;100.00;100128.33;1864079;77;21269;-73
2021/03/10 00:58:49;;;;;;;;;;;;;;;-9.43;100.00;100125.48;1864084;77;20879;-74
2021/03/10 01:01:17;;;;;;;;;;;;;;;-9.36;100.00;100122.80;1864135;77;20201;-74
2021/03/10 01:03:45;;;;;;;;;;;;;;;-9.34;100.00;100120.45;1864000;77;20126;-73
2021/03/10 01:06:13;;;;;;;;;;;;;;;-9.33;100.00;100118.22;1864201;77;20221;-73
2021/03/10 01:08:41;;;;;;;;;;;;;;;-9.42;100.00;100116.29;1864072;77;21783;-73
2021/03/10 01:11:08;;;;;;;;;;;;;;;-9.53;100.00;100115.78;1864038;77;20882;-73
2021/03/10 01:13:36;;;;;;;;;;;;;;;-9.59;100.00;100117.52;1864019;77;20126;-73
2021/03/10 01:16:05;;;;;;;;;;;;;;;-9.61;100.00;100110.29;1864178;77;20325;-73
2021/03/10 01:18:33;;;;;;;;;;;;;;;-9.62;100.00;100110.42;1864111;77;20130;-73
2021/03/10 01:21:01;;;;;;;;;;;;;;;-9.66;100.00;100109.80;1864158;77;21138;-73
2021/03/10 01:23:28;;;;;;;;;;;;;;;-9.69;100.00;100107.91;1864073;77;20849;-73
2021/03/10 01:25:56;;;;;;;;;;;;;;;-9.67;100.00;100103.43;1864043;77;20134;-74
2021/03/10 01:28:24;;;;;;;;;;;;;;;-9.67;100.00;100098.23;1864103;77;20695;-74
2021/03/10 01:30:52;;;;;;;;;;;;;;;-9.71;100.00;100098.43;1864055;77;20205;-72
2021/03/10 01:33:20;;;;;;;;;;;;;;;-9.69;100.00;100098.33;1863981;77;21182;-72
2021/03/10 01:35:50;;;;;;;;;;;;;;;-9.59;100.00;100098.02;1859491;77;20141;-72
2021/03/10 01:38:18;;;;;;;;;;;;;;;-9.51;100.00;100098.28;1864057;77;20217;-71
2021/03/10 01:40:45;;;;;;;;;;;;;;;-9.46;100.00;100096.66;1864001;77;20106;-72
2021/03/10 01:43:32;;;;;;;;;;;;;;;-9.42;100.00;100094.20;1864100;77;20146;-72
2021/03/10 01:46:17;;;;;;;;;;;;;;;-9.34;100.00;100093.15;1864118;77;21428;-72
2021/03/10 01:48:45;;;;;;;;;;;;;;;-9.40;100.00;100093.62;1833393;77;20126;-72
2021/03/10 01:51:13;;;;;;;;;;;;;;;-9.43;100.00;100088.66;1858540;77;20488;-72
2021/03/10 01:53:41;;;;;;;;;;;;;;;-9.47;100.00;100087.20;1857734;77;20142;-72
2021/03/10 01:56:08;;;;;;;;;;;;;;;-9.50;100.00;100083.06;1857900;77;20139;-73
2021/03/10 01:58:37;;;;;;;;;;;;;;;-9.48;100.00;100090.73;1825306;77;22481;-73
2021/03/10 02:01:05;;;;;;;;;;;;;;;-9.46;100.00;100088.85;1857795;77;20504;-73
2021/03/10 02:03:33;;;;;;;;;;;;;;;-9.42;100.00;100087.70;1857820;77;20485;-73
2021/03/10 02:06:01;;;;;;;;;;;;;;;-9.41;100.00;100089.34;1857754;77;20146;-72
2021/03/10 02:08:44;;;;;;;;;;;;;;;-9.45;100.00;100089.70;1857823;77;20508;-73
2021/03/10 02:11:30;;;;;;;;;;;;;;;-9.59;100.00;100086.80;1857677;77;21647;-72
2021/03/10 02:14:13;;;;;;;;;;;;;;;-9.65;100.00;100088.53;1857570;77;20134;-73
2021/03/10 02:16:50;;;;;;;;;;;;;;;-9.72;100.00;100086.39;1857698;77;20222;-72
2021/03/10 02:19:50;;;;;;;;;;;;;;;-9.71;100.00;100093.23;1857356;77;20292;-71
2021/03/10 02:22:59;;;;;;;;;;;;;;;-9.62;100.00;100096.12;1857705;77;20225;-72
2021/03/10 02:25:43;;;;;;;;;;;;;;;-9.58;100.00;100088.45;1857800;77;21338;-72
2021/03/10 02:28:10;;;;;;;;;;;;;;;-9.49;100.00;100087.30;1857647;77;20134;-73
2021/03/10 02:30:40;;;;;;;;;;;;;;;-9.44;100.00;100088.75;1857665;77;20159;-73
2021/03/10 02:33:10;;;;;;;;;;;;;;;-9.42;100.00;100094.67;1857727;77;20150;-73
2021/03/10 02:35:39;;;;;;;;;;;;;;;-9.47;100.00;100091.11;1785249;79;20181;-73
2021/03/10 02:38:08;;;;;;;;;;;;;;;-9.51;100.00;100090.96;1757449;80;21616;-73
2021/03/10 02:40:38;;;;;;;;;;;;;;;-9.51;100.00;100087.89;1756878;79;20138;-73
2021/03/10 02:43:07;;;;;;;;;;;;;;;-9.45;100.00;100088.41;1792483;80;20167;-73
2021/03/10 02:45:34;;;;;;;;;;;;;;;-9.54;100.00;100085.52;1792435;80;20134;-73
2021/03/10 02:48:02;;;;;;;;;;;;;;;-9.67;100.00;100091.73;1792641;80;20485;-73
2021/03/10 02:50:30;;;;;;;;;;;;;;;-9.77;100.00;100094.99;1792283;80;21848;-73
2021/03/10 02:52:58;;;;;;;;;;;;;;;-9.78;100.00;100096.39;1792467;79;20509;-73
2021/03/10 02:55:26;;;;;;;;;;;;;;;-9.88;100.00;100097.52;1792514;80;20128;-73
2021/03/10 02:57:54;;;;;;;;;;;;;;;-10.01;100.00;100101.94;1792402;80;20222;-74
2021/03/10 03:00:22;;;;;;;;;;;;;;;-10.07;100.00;100091.49;1757457;80;20119;-73
2021/03/10 03:02:50;;;;;;;;;;;;;;;-10.08;100.00;100089.02;1757774;80;21212;-73
2021/03/10 03:05:18;;;;;;;;;;;;;;;-10.08;100.00;100092.92;1792402;79;20159;-73
2021/03/10 03:07:47;;;;;;;;;;;;;;;-10.01;100.00;100089.77;1792478;80;20218;-73
2021/03/10 03:10:17;;;;;;;;;;;;;;;-9.88;100.00;100096.69;1792520;80;20542;-73
2021/03/10 03:12:45;;;;;;;;;;;;;;;-9.84;100.00;100097.67;1792549;79;20492;-74
2021/03/10 03:15:18;;;;;;;;;;;;;;;-9.81;100.00;100097.44;1792499;79;21652;-73
2021/03/10 03:17:46;;;;;;;;;;;;;;;-9.78;100.00;100097.69;1792475;80;20243;-73
2021/03/10 03:20:15;;;;;;;;;;;;;;;-9.76;100.00;100094.04;1792385;80;20135;-74
2021/03/10 03:22:44;;;;;;;;;;;;;;;-9.76;100.00;100096.64;1792474;79;20513;-73
2021/03/10 03:25:15;;;;;;;;;;;;;;;-9.71;100.00;100099.73;1792457;80;20131;-73
2021/03/10 03:27:45;;;;;;;;;;;;;;;-9.74;100.00;100092.64;1792482;79;22137;-73
2021/03/10 03:30:14;;;;;;;;;;;;;;;-9.72;100.00;100097.27;1792428;80;20151;-73
2021/03/10 03:32:42;;;;;;;;;;;;;;;-9.73;100.00;100093.81;1792407;80;20226;-73
2021/03/10 03:35:11;;;;;;;;;;;;;;;-9.75;100.00;100099.61;1792414;80;20142;-73
2021/03/10 03:37:41;;;;;;;;;;;;;;;-9.78;100.00;100103.70;1792447;80;20493;-73
2021/03/10 03:40:09;;;;;;;;;;;;;;;-9.76;100.00;100101.83;1792451;80;21623;-73
2021/03/10 03:42:37;;;;;;;;;;;;;;;-9.76;100.00;100103.12;1792309;80;20158;-73
2021/03/10 03:45:06;;;;;;;;;;;;;;;-9.69;100.00;100105.30;1792466;80;20235;-73
2021/03/10 03:47:34;;;;;;;;;;;;;;;-9.68;100.00;100101.75;1792423;80;20111;-73
2021/03/10 03:50:02;;;;;;;;;;;;;;;-9.62;100.00;100099.55;1792156;79;20214;-73
2021/03/10 03:52:30;;;;;;;;;;;;;;;-9.60;100.00;100095.52;1791010;80;21273;-73
2021/03/10 03:54:57;;;;;;;;;;;;;;;-9.68;100.00;100095.26;1790941;80;20222;-73
2021/03/10 03:57:25;;;;;;;;;;;;;;;-9.70;100.00;100091.45;1790990;80;20131;-73
2021/03/10 03:59:52;;;;;;;;;;;;;;;-9.70;100.00;100094.05;1791029;80;20151;-73
2021/03/10 04:02:21;;;;;;;;;;;;;;;-9.64;100.00;100098.00;1791131;79;20241;-73
2021/03/10 04:04:49;;;;;;;;;;;;;;;-9.69;100.00;100092.31;1791092;80;22527;-73
2021/03/10 04:07:16;;;;;;;;;;;;;;;-9.67;100.00;100097.76;1790968;80;20127;-73
2021/03/10 04:09:44;;;;;;;;;;;;;;;-9.62;100.00;100098.25;1791097;80;20498;-73
2021/03/10 04:12:13;;;;;;;;;;;;;;;-9.60;100.00;100101.58;1791047;80;20956;-74
2021/03/10 04:14:41;;;;;;;;;;;;;;;-9.59;100.00;100099.80;1791045;80;20506;-73
2021/03/10 04:17:08;;;;;;;;;;;;;;;-9.56;100.00;100095.67;1791075;80;22274;-73
2021/03/10 04:19:36;;;;;;;;;;;;;;;-9.52;100.00;100098.41;1790999;80;20131;-73
2021/03/10 04:22:05;;;;;;;;;;;;;;;-9.51;100.00;100105.25;1791035;80;20155;-73
2021/03/10 04:24:32;;;;;;;;;;;;;;;-9.51;100.00;100100.06;1791008;79;20111;-73
2021/03/10 04:27:00;;;;;;;;;;;;;;;-9.46;100.00;100099.73;1791007;79;20182;-74
2021/03/10 04:29:28;;;;;;;;;;;;;;;-9.46;100.00;100103.14;1791015;80;22144;-73
2021/03/10 04:31:55;;;;;;;;;;;;;;;-9.46;100.00;100101.03;1790896;80;20251;-73
2021/03/10 04:34:23;;;;;;;;;;;;;;;-9.42;100.00;100105.07;1791100;80;20494;-73
2021/03/10 04:36:51;;;;;;;;;;;;;;;-9.39;100.00;100102.23;1790926;80;20230;-73
2021/03/10 04:39:21;;;;;;;;;;;;;;;-9.42;100.00;100101.99;1790964;80;20231;-73
2021/03/10 04:41:48;;;;;;;;;;;;;;;-9.37;100.00;100111.58;1791032;80;22208;-74
2021/03/10 04:44:16;;;;;;;;;;;;;;;-9.37;100.00;100108.16;1790943;79;20135;-73
2021/03/10 04:46:43;;;;;;;;;;;;;;;-9.33;100.00;100112.20;1791048;80;20565;-74
2021/03/10 04:49:12;;;;;;;;;;;;;;;-9.30;100.00;100106.77;1790907;80;20159;-73
2021/03/10 04:51:39;;;;;;;;;;;;;;;-9.21;100.00;100112.60;1791711;79;20219;-73
2021/03/10 04:54:07;;;;;;;;;;;;;;;-9.14;100.00;100116.38;1792497;80;22268;-73
2021/03/10 04:56:35;;;;;;;;;;;;;;;-9.02;100.00;100117.24;1792419;80;20502;-73
2021/03/10 04:59:03;;;;;;;;;;;;;;;-8.96;100.00;100117.28;1792330;80;20497;-74
2021/03/10 05:01:32;;;;;;;;;;;;;;;-8.81;100.00;100117.90;1792384;79;20147;-74
2021/03/10 05:04:00;;;;;;;;;;;;;;;-8.61;100.00;100127.62;1757230;80;20305;-74
2021/03/10 05:06:28;;;;;;;;;;;;;;;-8.46;100.00;100116.02;1792354;80;21208;-75
2021/03/10 05:08:57;;;;;;;;;;;;;;;-8.23;100.00;100117.29;1792316;80;20142;-73
2021/03/10 05:11:24;;;;;;;;;;;;;;;-8.00;100.00;100120.72;1792394;79;20131;-74
2021/03/10 05:13:53;;;;;;;;;;;;;;;-7.86;100.00;100120.95;1792362;80;20159;-73
2021/03/10 05:16:20;;;;;;;;;;;;;;;-7.77;100.00;100118.89;1792452;80;20143;-74
2021/03/10 05:18:48;;;;;;;;;;;;;;;-7.76;100.00;100121.86;1792303;80;21209;-74
2021/03/10 05:21:16;;;;;;;;;;;;;;;-7.70;100.00;100120.06;1757255;80;20222;-74
2021/03/10 05:23:44;;;;;;;;;;;;;;;-7.52;100.00;100122.98;1757614;80;20131;-74
2021/03/10 05:26:12;;;;;;;;;;;;;;;-7.47;100.00;100118.68;1792315;80;20139;-75
2021/03/10 05:28:40;;;;;;;;;;;;;;;-7.21;100.00;100130.44;1792354;80;20123;-73
2021/03/10 05:31:08;;;;;;;;;;;;;;;-6.98;100.00;100135.09;1792344;80;21707;-73
2021/03/10 05:33:36;;;;;;;;;;;;;;;-6.88;100.00;100133.86;1792353;80;20213;-73
2021/03/10 05:36:05;;;;;;;;;;;;;;;-6.71;100.00;100133.76;1792361;80;20135;-73
2021/03/10 05:38:32;;;;;;;;;;;;;;;-6.63;100.00;100135.72;1792392;80;20508;-73
2021/03/10 05:41:01;;;;;;;;;;;;;;;-6.47;100.00;100140.83;1792352;80;20226;-73
2021/03/10 05:43:30;;;;;;;;;;;;;;;-6.32;100.00;100141.31;1792329;80;21206;-73
2021/03/10 05:45:57;;;;;;;;;;;;;;;-6.17;100.00;100148.33;1792312;80;20195;-73
2021/03/10 05:48:25;;;;;;;;;;;;;;;-6.01;100.00;100153.05;1792324;80;20249;-73
2021/03/10 05:50:53;;;;;;;;;;;;;;;-5.81;100.00;100147.36;1794841;79;20237;-73
2021/03/10 05:53:22;;;;;;;;;;;;;;;-5.70;100.00;100157.73;1807065;79;20515;-72
2021/03/10 05:55:50;;;;;;;;;;;;;;;-5.53;100.00;100157.55;1775595;79;21808;-73
2021/03/10 05:58:18;;;;;;;;;;;;;;;-5.36;100.00;100161.76;1806738;79;20158;-73
2021/03/10 06:00:52;;;;;;;;;;;;;;;-5.29;99.73;100159.80;1806938;79;20480;-73
2021/03/10 06:03:19;;;;;;;;;;;;;;;-5.28;97.28;100158.81;1793377;79;20225;-73
2021/03/10 06:05:59;;;;;;;;;;;;;;;-5.16;96.54;100164.76;1806971;79;20277;-73
2021/03/10 06:08:31;;;;;;;;;;;;;;;-5.00;95.45;100168.12;1806967;79;21642;-74
2021/03/10 06:11:00;;;;;;;;;;;;;;;-4.78;96.92;100165.69;1806645;79;20142;-74
2021/03/10 06:13:31;;;;;;;;;;;;;;;-4.54;98.09;100167.38;1806666;79;20225;-74
2021/03/10 06:16:00;;;;;;;;;;;;;;;-4.38;93.68;100166.80;1807081;79;20158;-74
2021/03/10 06:18:33;;;;;;;;;;;;;;;-4.21;92.39;100169.66;1807119;79;20138;-74
2021/03/10 06:21:10;;;;;;;;;;;;;;;-4.08;94.06;100170.64;1807116;79;21377;-74
2021/03/10 06:23:50;;;;;;;;;;;;;;;-3.91;91.91;100172.50;1805733;79;20563;-74
2021/03/10 06:26:20;;;;;;;;;;;;;;;-3.88;90.05;100173.52;1805729;79;20590;-74
2021/03/10 06:28:48;;;;;;;;;;;;;;;-3.69;91.18;100181.29;1806676;79;20217;-74
2021/03/10 06:31:22;;;;;;;;;;;;;;;-3.60;86.19;100176.98;1807931;79;20130;-74
2021/03/10 06:34:05;;;;;;;;;;;;;;;-3.68;84.31;100179.48;1807014;79;21335;-74
2021/03/10 06:36:35;;;;;;;;;;;;;;;-3.58;86.17;100178.12;1807079;79;20514;-74
2021/03/10 06:39:09;;;;;;;;;;;;;;;-3.47;85.63;100178.75;1774625;79;20528;-74
2021/03/10 06:41:39;;;;;;;;;;;;;;;-3.22;85.93;100180.81;1806290;79;20530;-75
2021/03/10 06:44:17;;;;;;;;;;;;;;;-3.00;83.09;100184.30;1806141;79;20277;-74
2021/03/10 06:46:54;;;;;;;;;;;;;;;-2.88;79.57;100186.21;1806532;79;21146;-74
2021/03/10 06:49:23;;;;;;;;;;;;;;;-2.81;79.52;100181.52;1805789;79;20155;-75
2021/03/10 06:51:54;;;;;;;;;;;;;;;-2.76;78.31;100187.62;1798926;79;20509;-75
2021/03/10 06:54:23;;;;;;;;;;;;;;;-2.71;76.52;100184.55;1789969;80;20238;-75
2021/03/10 06:57:14;;;;;;;;;;;;;;;-2.58;78.46;100184.97;1790486;80;20282;-74
2021/03/10 06:59:43;;;;;;;;;;;;;;;-2.39;71.00;100187.41;1790285;79;22285;-72
2021/03/10 07:02:28;;;;;;;;;;;;;;;-2.27;69.36;100187.98;1790321;79;20120;-76
2021/03/10 07:05:03;;;;;;;;;;;;;;;-2.31;66.61;100189.75;1762013;79;20199;-71
2021/03/10 07:07:37;;;;;;;;;;;;;;;-2.22;66.12;100190.97;1769605;81;20228;-72
2021/03/10 07:10:11;;;;;;;;;;;;;;;-1.98;66.18;100192.91;1766119;81;20499;-72
2021/03/10 07:12:39;;;;;;;;;;;;;;;-1.95;63.05;100195.22;1769398;81;21331;-73
2021/03/10 07:15:09;;;;;;;;;;;;;;;-1.83;64.48;100191.02;1769003;81;20803;-74
2021/03/10 07:17:53;;;;;;;;;;;;;;;-1.66;61.62;100187.96;1768620;81;20125;-74
2021/03/10 07:20:27;;;;;;;;;;;;;;;-1.81;61.20;100187.74;1767925;81;20292;-72
2021/03/10 07:23:12;;;;;;;;;;;;;;;-1.75;60.56;100189.72;1767326;81;20279;-73
2021/03/10 07:25:43;;;;;;;;;;;;;;;-1.90;59.77;100192.63;1768950;81;21200;-72
2021/03/10 07:28:21;;;;;;;;;;;;;;;-1.89;59.84;100196.89;1768720;81;20637;-71
2021/03/10 07:30:48;;;;;;;;;;;;;;;-1.76;58.60;100190.72;1768444;81;20587;-73
2021/03/10 07:33:19;;;;;;;;;;;;;;;-1.57;59.04;100190.47;1768035;81;20706;-73
2021/03/10 07:35:57;;;;;;;;;;;;;;;-1.50;57.89;100189.31;1768169;81;20303;-73
2021/03/10 07:38:38;;;;;;;;;;;;;;;-1.37;56.85;100189.70;1767847;81;21410;-72
2021/03/10 07:41:12;;;;;;;;;;;;;;;-1.40;57.20;100182.59;1767824;81;20307;-73
2021/03/10 07:43:47;;;;;;;;;;;;;;;-1.22;55.41;100188.58;1767208;81;20306;-73
2021/03/10 07:46:39;;;;;;;;;;;;;;;-1.11;55.17;100192.20;1768349;81;20253;-72
2021/03/10 07:49:21;;;;;;;;;;;;;;;-1.07;55.25;100188.77;1789969;80;20302;-74
2021/03/10 07:51:52;;;;;;;;;;;;;;;-1.36;52.76;100193.97;1789946;80;22142;-74
2021/03/10 07:54:27;;;;;;;;;;;;;;;-1.44;55.45;100185.23;1788016;80;20297;-74
2021/03/10 07:57:12;;;;;;;;;;;;;;;-1.32;53.42;100179.50;1789723;79;20249;-74
2021/03/10 08:00:02;;;;;;;;;;;;;;;-1.38;51.98;100190.67;1789821;79;20210;-75
2021/03/10 08:02:43;;;;;;;;;;;;;;;-1.39;54.48;100187.71;1789880;80;20218;-73
2021/03/10 08:05:42;;;;;;;;;;;;;;;-1.04;54.46;100183.66;1790314;80;20184;-73
2021/03/10 08:08:12;;;;;;;;;;;;;;;-0.73;52.62;100176.77;1789620;80;20307;-73
2021/03/10 08:10:45;;;;;;;;;;;;;;;-0.88;52.97;100176.60;1791290;79;20229;-73
2021/03/10 08:13:19;;;;;;;;;;;;;;;-0.71;52.27;100173.95;1789263;80;20297;-74
2021/03/10 08:15:48;;;;;;;;;;;;;;;-0.86;51.47;100173.78;1789501;80;20219;-73
2021/03/10 08:18:20;;;;;;;;;;;;;;;-0.90;51.00;100178.58;1789984;80;21405;-73
2021/03/10 08:20:49;;;;;;;;;;;;;;;-1.02;51.61;100179.06;1789682;80;20232;-75
2021/03/10 08:23:19;;;;;;;;;;;;;;;-1.20;52.21;100174.76;1787409;80;20273;-73
2021/03/10 08:25:52;;;;;;;;;;;;;;;-0.89;51.73;100175.44;1788957;80;20351;-73
2021/03/10 08:28:20;;;;;;;;;;;;;;;-1.00;51.86;100175.27;1789301;79;20233;-74
2021/03/10 08:30:50;;;;;;;;;;;;;;;-1.10;50.67;100171.48;1789676;80;22321;-72
2021/03/10 08:33:17;;;;;;;;;;;;;;;-0.79;51.18;100170.82;1789914;80;20209;-74
2021/03/10 08:35:48;;;;;;;;;;;;;;;-0.72;51.63;100167.86;1789906;79;20218;-74
2021/03/10 08:38:19;;;;;;;;;;;;;;;-0.95;51.40;100174.78;1789877;80;20275;-72
2021/03/10 08:40:48;;;;;;;;;;;;;;;-0.75;51.37;100168.70;1790046;79;20561;-74
2021/03/10 08:43:21;;;;;;;;;;;;;;;-0.75;49.47;100170.83;1790062;80;21205;-72
2021/03/10 08:45:50;;;;;;;;;;;;;;;-0.38;50.20;100173.94;1789454;79;20285;-74
2021/03/10 08:48:20;;;;;;;;;;;;;;;0.04;49.02;100168.38;1759220;80;20274;-74
2021/03/10 08:50:50;;;;;;;;;;;;;;;0.12;48.80;100168.38;1790108;80;20247;-73
2021/03/10 08:53:18;;;;;;;;;;;;;;;0.18;49.96;100171.63;1788673;79;20961;-74
2021/03/10 08:55:48;;;;;;;;;;;;;;;0.58;47.75;100179.54;1788748;80;21382;-73
2021/03/10 08:58:22;;;;;;;;;;;;;;;0.71;47.42;100172.36;1789590;79;20278;-72
2021/03/10 09:00:51;;;;;;;;;;;;;;;0.26;46.46;100183.16;1789568;79;20317;-74
2021/03/10 09:03:35;;;;;;;;;;;;;;;0.29;47.93;100170.42;1789698;80;20234;-74
2021/03/10 09:09:04;;;;;;;;;;;;;;;-0.13;47.86;100159.69;1866360;75;20206;-74
2021/03/10 09:12:02;;;;;;;;;;;;;;;-0.04;49.18;100175.83;1764547;80;20318;-73
2021/03/10 09:15:14;;;;;;;;;;;;;;;0.50;46.23;100172.48;1846137;76;20685;-74
2021/03/10 09:20:50;;;;;;;;;;;;;;;0.96;45.53;100167.77;1754103;81;20151;-74
2021/03/10 09:23:46;;;;;;;;;;;;;;;0.53;47.24;100165.53;1841573;76;20194;-76
2021/03/10 09:26:22;;;;;;;;;;;;;;;0.53;46.37;100172.63;1853002;77;20292;-72
2021/03/10 09:28:51;;;;;;;;;;;;;;;1.09;46.18;100170.62;1821209;78;20125;-73
2021/03/10 09:31:28;;;;;;;;;;;;;;;1.13;44.94;100175.89;1816206;78;22418;-74
2021/03/10 09:34:05;;;;;;;;;;;;;;;0.81;43.59;100167.70;1820950;78;20164;-74
2021/03/10 09:36:41;;;;;;;;;;;;;;;0.73;44.51;100163.77;1820100;78;20188;-74
2021/03/10 09:39:08;;;;;;;;;;;;;;;1.22;45.03;100173.99;1816541;78;20487;-74
2021/03/10 09:41:48;;;;;;;;;;;;;;;1.41;42.24;100174.01;1819825;78;20157;-73
2021/03/10 09:44:18;;;;;;;;;;;;;;;1.39;42.67;100178.14;1819257;78;21219;-75
2021/03/10 09:46:50;;;;;;;;;;;;;;;1.62;42.18;100168.86;1821324;78;20502;-74
2021/03/10 09:49:22;;;;;;;;;;;;;;;1.77;42.51;100164.91;1781035;78;20188;-75
2021/03/10 09:51:53;;;;;;;;;;;;;;;2.19;41.72;100161.30;1821449;78;20279;-76
2021/03/10 09:54:23;;;;;;;;;;;;;;;2.13;41.99;100166.33;1820931;78;20550;-76
2021/03/10 09:57:01;;;;;;;;;;;;;;;2.21;40.36;100164.08;1814408;78;20188;-75
2021/03/10 09:59:40;;;;;;;;;;;;;;;2.14;41.17;100167.15;1818872;78;20586;-76
2021/03/10 10:02:15;;;;;;;;;;;;;;;1.53;40.82;100165.96;1821052;78;20291;-76
2021/03/10 10:04:56;;;;;;;;;;;;;;;0.74;42.66;100157.50;1821451;78;20231;-75
2021/03/10 10:07:26;;;;;;;;;;;;;;;0.98;43.31;100168.39;1789696;78;20507;-75
2021/03/10 10:10:00;;;;;;;;;;;;;;;1.47;42.98;100156.93;1819465;78;22271;-75
2021/03/10 10:12:31;;;;;;;;;;;;;;;2.10;41.27;100168.51;1816570;78;20306;-74
2021/03/10 10:15:31;;;;;;;;;;;;;;;;;;;;;
2021/03/10 10:29:18;;;;;;;;;;;;;;;2.46;38.65;100167.75;1853890;77;20276;-72
2021/03/10 10:31:48;;;;;;;;;;;;;;;2.01;39.41;100167.80;1821552;78;20141;-73
2021/03/10 10:34:19;;;;;;;;;;;;;;;1.71;39.98;100155.87;1821462;78;22415;-73
2021/03/10 10:36:50;;;;;;;;;;;;;;;1.45;40.04;100154.14;1821808;78;20180;-73
2021/03/10 10:39:23;;;;;;;;;;;;;;;1.74;39.77;100149.88;1821235;78;20499;-75
2021/03/10 10:41:52;;;;;;;;;;;;;;;2.01;39.66;100140.00;1822566;78;20137;-74
2021/03/10 10:44:21;;;;;;;;;;;;;;;1.49;39.27;100143.50;1822388;78;20133;-72
2021/03/10 10:46:49;;;;;;;;;;;;;;;1.96;40.29;100148.99;1822460;78;20563;-73
2021/03/10 10:49:20;;;;;;;;;;;;;;;2.56;39.44;100143.09;1822056;78;20172;-74
2021/03/10 10:51:48;;;;;;;;;;;;;;;3.41;38.29;100142.27;1822450;78;20516;-73
2021/03/10 10:54:18;;;;;;;;;;;;;;;3.61;37.26;100144.25;1821733;78;20223;-73
2021/03/10 10:56:46;;;;;;;;;;;;;;;3.64;36.70;100147.33;1822396;78;20129;-73
2021/03/10 10:59:22;;;;;;;;;;;;;;;3.45;35.96;100149.33;1820847;78;21715;-74
2021/03/10 11:01:51;;;;;;;;;;;;;;;3.65;36.99;100141.53;1822283;78;20518;-72
2021/03/10 11:04:19;;;;;;;;;;;;;;;3.03;35.71;100131.63;1821884;78;20275;-74
2021/03/10 11:06:55;;;;;;;;;;;;;;;2.35;37.82;100134.59;1822537;78;20576;-73
2021/03/10 11:09:29;;;;;;;;;;;;;;;2.25;39.56;100134.06;1822641;78;20128;-75
2021/03/10 11:12:00;;;;;;;;;;;;;;;2.82;37.74;100140.39;1822480;78;21205;-73
2021/03/10 11:14:28;;;;;;;;;;;;;;;2.78;37.69;100130.17;1781080;78;20133;-74
2021/03/10 11:16:59;;;;;;;;;;;;;;;3.08;37.06;100132.70;1820632;78;20479;-73
2021/03/10 11:19:48;;;;;;;;;;;;;;;3.51;36.32;100125.20;1821597;78;20152;-74
2021/03/10 11:22:23;;;;;;;;;;;;;;;3.20;36.54;100119.74;1822531;78;20137;-74
2021/03/10 11:24:51;;;;;;;;;;;;;;;3.40;37.45;100119.89;1822375;78;21157;-74
2021/03/10 11:27:27;;;;;;;;;;;;;;;3.21;36.62;100116.09;1801941;78;20525;-74
2021/03/10 11:29:56;;;;;;;;;;;;;;;2.18;37.69;100104.87;1822484;78;20132;-75
2021/03/10 11:32:29;;;;;;;;;;;;;;;2.17;38.80;100112.48;1822349;78;20133;-75
2021/03/10 11:35:15;;;;;;;;;;;;;;;2.61;37.03;100107.58;1817514;78;20211;-74
2021/03/10 11:37:50;;;;;;;;;;;;;;;2.36;37.67;100098.65;1822739;78;22385;-74
2021/03/10 11:40:24;;;;;;;;;;;;;;;2.29;38.78;100101.72;1821321;78;20211;-75
2021/03/10 11:43:01;;;;;;;;;;;;;;;2.54;39.18;100105.36;1821799;78;20125;-76
2021/03/10 11:45:33;;;;;;;;;;;;;;;2.98;36.30;100095.89;1821606;78;20847;-75
2021/03/10 11:48:14;;;;;;;;;;;;;;;3.48;36.94;100102.52;1819992;78;20109;-74
2021/03/10 11:50:47;;;;;;;;;;;;;;;4.09;35.69;100100.48;1821882;78;21371;-74
2021/03/10 11:53:18;;;;;;;;;;;;;;;3.79;34.82;100095.44;1821340;78;20577;-76
2021/03/10 11:55:47;;;;;;;;;;;;;;;3.37;35.09;100105.18;1821820;78;20283;-74
2021/03/10 11:58:19;;;;;;;;;;;;;;;3.38;35.54;100098.03;1821846;78;20259;-76
2021/03/10 12:00:48;;;;;;;;;;;;;;;3.19;36.80;100103.52;1821825;78;20124;-75
2021/03/10 12:03:58;;;;;;;;;;;;;;;3.00;35.16;100088.56;1812292;78;21320;-75
2021/03/10 12:06:32;;;;;;;;;;;;;;;3.04;35.34;100093.00;1819758;78;20672;-75
2021/03/10 12:09:18;;;;;;;;;;;;;;;;;;;;;
2021/03/10 12:23:02;;;;;;;;;;;;;;;2.82;38.05;100075.44;1736458;76;20834;-75
2021/03/10 12:25:37;;;;;;;;;;;;;;;2.49;37.65;100075.44;1745387;81;20473;-76
2021/03/10 12:28:27;;;;;;;;;;;;;;;1.84;39.79;100074.50;1574133;88;20875;-74
2021/03/10 12:31:06;;;;;;;;;;;;;;;2.48;38.79;100077.78;1567884;87;20795;-73
2021/03/10 12:33:56;;;;;;;;;;;;;;;2.17;39.34;100078.56;1576556;89;20791;-74
2021/03/10 12:42:53;;;;;;;;;;;;;;;2.44;39.28;100075.70;1875198;76;20197;-75
2021/03/10 12:45:33;;;;;;;;;;;;;;;2.25;39.15;100076.60;1816327;79;20152;-76
2021/03/10 12:48:14;;;;;;;;;;;;;;;;;;;;;
2021/03/10 12:50:41;;;;;;;;;;;;;;;2.20;40.01;100079.50;1816441;79;20117;-75
2021/03/10 12:53:12;;;;;;;;;;;;;;;2.39;39.32;100078.91;1816370;79;20960;-74
2021/03/10 12:55:42;;;;;;;;;;;;;;;2.60;38.98;100082.09;1816354;79;20196;-75
2021/03/10 12:58:10;;;;;;;;;;;;;;;3.22;37.60;100082.72;1816364;79;20514;-76
2021/03/10 13:01:04;;;;;;;;;;;;;;;3.52;36.65;100075.88;1816458;79;20741;-76
2021/03/10 13:03:42;;;;;;;;;;;;;;;3.72;37.15;100075.17;1816139;78;20282;-75
2021/03/10 13:06:11;;;;;;;;;;;;;;;2.31;39.30;100068.44;1816651;79;20200;-74
2021/03/10 13:08:39;;;;;;;;;;;;;;;2.74;37.96;100065.79;1816470;79;20129;-76
2021/03/10 13:11:08;;;;;;;;;;;;;;;3.04;38.09;100071.78;1816564;79;20125;-74
2021/03/10 13:13:37;;;;;;;;;;;;;;;3.49;37.25;100070.97;1816527;79;21134;-76
2021/03/10 13:16:05;;;;;;;;;;;;;;;3.52;37.17;100074.55;1816262;79;20157;-76
2021/03/10 13:18:40;;;;;;;;;;;;;;;2.96;38.11;100069.25;1815879;79;20192;-75
2021/03/10 13:21:11;;;;;;;;;;;;;;;2.56;37.68;100063.08;1816383;79;20272;-75
2021/03/10 13:24:01;;;;;;;;;;;;;;;2.30;38.65;100064.13;1813919;79;20153;-75
2021/03/10 13:26:41;;;;;;;;;;;;;;;2.58;37.75;100057.60;1815355;79;21647;-75
2021/03/10 13:29:17;;;;;;;;;;;;;;;2.64;38.32;100056.83;1815711;79;20307;-75
2021/03/10 13:31:50;;;;;;;;;;;;;;;2.39;38.36;100065.66;1816096;79;20283;-75
2021/03/10 13:34:25;;;;;;;;;;;;;;;2.47;39.27;100060.23;1815594;78;20113;-74
2021/03/10 13:36:53;;;;;;;;;;;;;;;3.35;37.83;100059.95;1815960;79;20145;-76
2021/03/10 13:39:23;;;;;;;;;;;;;;;3.81;36.28;100055.42;1816117;79;21413;-76